ADDS METAR Data INFO
IDs: Format: Raw Decoded Include TAF

Data at: 0835 UTC 21 Oct 2017

KULM 210814Z AUTO 17017G24KT 10SM 17/12 A2963 RMK AO2
KULM 210754Z AUTO 17018G26KT 10SM 18/12 A2963 RMK AO2
KULM 210734Z AUTO 17018G25KT 10SM 17/12 A2964 RMK AO2
KULM 210714Z AUTO 17019G27KT 10SM 18/12 A2964 RMK AO2
KULM 210653Z AUTO 17016G23KT 10SM CLR 18/12 A2965 RMK AO2
KULM 210634Z AUTO 18017G24KT 10SM CLR 18/12 A2965 RMK AO2
KULM 210614Z AUTO 18019G27KT 10SM CLR 18/12 A2965 RMK AO2
KULM 210553Z AUTO 17021G25KT 10SM CLR 18/12 A2966 RMK AO2
KULM 210534Z AUTO 18018G30KT 10SM CLR 18/12 A2967 RMK AO2
KULM 210514Z AUTO 18018G24KT 10SM CLR 18/12 A2967 RMK AO2
KULM 210453Z AUTO 17017G27KT 10SM CLR 18/12 A2967 RMK AO2
KULM 210434Z AUTO 17017G23KT 10SM 18/12 A2967 RMK AO2
KULM 210414Z AUTO 17016G23KT 10SM 18/11 A2967 RMK AO2
KULM 210353Z AUTO 17016G24KT 10SM CLR 18/11 A2967 RMK AO2
KULM 210334Z AUTO 18017G23KT 10SM CLR 18/11 A2968 RMK AO2
KULM 210314Z AUTO 17019G25KT 10SM CLR 18/11 A2968 RMK AO2
KULM 210253Z AUTO 16016G23KT 10SM CLR 19/10 A2967 RMK AO2
KULM 210234Z AUTO 17021G26KT 10SM CLR 19/10 A2967 RMK AO2
KULM 210214Z AUTO 16018G26KT 10SM CLR 19/10 A2967 RMK AO2
KULM 210153Z AUTO 16016G23KT 10SM CLR 19/09 A2967 RMK AO2
KULM 210134Z AUTO 16018G24KT 10SM CLR 19/09 A2967 RMK AO2
KULM 210114Z AUTO 16017G25KT 10SM CLR 19/09 A2967 RMK AO2
KULM 210054Z AUTO 17016G21KT 10SM CLR 20/09 A2968 RMK AO2
KULM 210034Z AUTO 16017G23KT 10SM CLR 20/09 A2968 RMK AO2
KULM 210014Z AUTO 17017G24KT 10SM CLR 21/09 A2968 RMK AO2
KULM 202354Z AUTO 16016G25KT 10SM CLR 21/09 A2967 RMK AO2
KULM 202334Z AUTO 16017G27KT 10SM CLR 21/08 A2968 RMK AO2
KULM 202314Z AUTO 17015G20KT 10SM CLR 22/08 A2967 RMK AO2
KULM 202254Z AUTO 17015G22KT 10SM CLR 22/09 A2968 RMK AO2
KULM 202234Z AUTO 17017G26KT 10SM CLR 23/08 A2968 RMK AO2
KULM 202213Z AUTO 17021G28KT 10SM CLR 23/09 A2969 RMK AO2
KULM 202154Z AUTO 18022G29KT 10SM CLR 24/08 A2969 RMK AO2
KULM 202134Z AUTO 18021G31KT 10SM CLR 24/07 A2969 RMK AO2
KULM 202113Z AUTO 19022G28KT 10SM CLR 24/08 A2969 RMK AO2
KULM 202054Z AUTO 17018G29KT 10SM CLR 24/08 A2970 RMK AO2
KULM 202034Z AUTO 17021G29KT 10SM CLR 25/08 A2970 RMK AO2
KULM 202013Z AUTO 17019G26KT 10SM CLR 25/09 A2971 RMK AO2
KULM 201954Z AUTO 18020G29KT 10SM CLR 24/10 A2972 RMK AO2
KULM 201934Z AUTO 18022G29KT 10SM CLR 24/10 A2973 RMK AO2
KULM 201913Z AUTO 20021G26KT 10SM CLR 24/10 A2973 RMK AO2
KULM 201854Z AUTO 19018G27KT 10SM CLR 24/11 A2975 RMK AO2
KULM 201834Z AUTO 18017G23KT 10SM CLR 23/11 A2976 RMK AO2
KULM 201814Z AUTO 18021G24KT 10SM CLR 23/11 A2978 RMK AO2
KULM 201754Z AUTO 19018G23KT 10SM CLR 22/11 A2979 RMK AO2
KULM 201734Z AUTO 19015G24KT 10SM CLR 22/11 A2979 RMK AO2
KULM 201714Z AUTO 18018G24KT 10SM CLR 22/11 A2980 RMK AO2
KULM 201654Z AUTO 19014G22KT 10SM CLR 21/11 A2981 RMK AO2
KULM 201634Z AUTO 18017G23KT 10SM CLR 21/11 A2982 RMK AO2
KULM 201614Z AUTO 18016G21KT 10SM CLR 20/11 A2982 RMK AO2
KULM 201554Z AUTO 19011G18KT 10SM CLR 18/11 A2984 RMK AO2
KULM 201534Z AUTO 20012G19KT 10SM 18/10 A2984 RMK AO2
KULM 201514Z AUTO 19015G19KT 10SM 17/10 A2985 RMK AO2
KULM 201454Z AUTO 19015G21KT 10SM 16/10 A2985 RMK AO2
KULM 201434Z AUTO 19015G20KT 10SM CLR 16/09 A2986 RMK AO2
KULM 201414Z AUTO 18012G15KT 10SM CLR 14/09 A2986 RMK AO2
KULM 201354Z AUTO 18011KT 10SM CLR 13/09 A2987 RMK AO2
KULM 201333Z AUTO 18012G17KT 10SM CLR 12/09 A2987 RMK AO2
KULM 201314Z AUTO 18012KT 10SM CLR 12/08 A2987 RMK AO2
KULM 201254Z AUTO 17011KT 10SM CLR 12/08 A2987 RMK AO2
KULM 201233Z AUTO 18012KT 10SM 12/08 A2987 RMK AO2
KULM 201214Z AUTO 18011KT 10SM 12/08 A2987 RMK AO2
KULM 201154Z AUTO 18011KT 10SM 11/08 A2987 RMK AO2
KULM 201133Z AUTO 18009KT 10SM 11/08 A2987 RMK AO2
KULM 201114Z AUTO 17009KT 10SM 11/08 A2987 RMK AO2
KULM 201054Z AUTO 17010KT 10SM 11/08 A2987 RMK AO2
KULM 201033Z AUTO 17009KT 10SM 11/09 A2987 RMK AO2
KULM 201014Z AUTO 17006KT 10SM 11/08 A2987 RMK AO2
KULM 200954Z AUTO 17007KT 10SM CLR 11/09 A2987 RMK AO2
KULM 200934Z AUTO 17008KT 10SM CLR 11/09 A2987 RMK AO2
KULM 200914Z AUTO 17008KT 10SM CLR 12/09 A2987 RMK AO2
KULM 200854Z AUTO 17009KT 10SM CLR 12/09 A2988 RMK AO2
KULM 200834Z AUTO 17009KT 10SM 12/09 A2988 RMK AO2
KULM 200814Z AUTO 17010KT 10SM 12/09 A2988 RMK AO2
KULM 200754Z AUTO 17009KT 10SM 12/09 A2989 RMK AO2
KULM 200734Z AUTO 17009KT 10SM 12/09 A2989 RMK AO2
KULM 200714Z AUTO 16009KT 10SM CLR 12/09 A2988 RMK AO2
KULM 200654Z AUTO 16008KT 10SM CLR 12/09 A2989 RMK AO2
KULM 200634Z AUTO 17009KT 10SM 13/09 A2989 RMK AO2
KULM 200614Z AUTO 17010KT 10SM 13/09 A2989 RMK AO2
KULM 200554Z AUTO 17011KT 10SM CLR 13/09 A2989 RMK AO2
KULM 200534Z AUTO 17011KT 10SM CLR 13/09 A2990 RMK AO2
KULM 200514Z AUTO 17011KT 10SM CLR 13/09 A2990 RMK AO2
KULM 200454Z AUTO 17010KT 10SM CLR 14/09 A2990 RMK AO2
KULM 200434Z AUTO 18010KT 10SM CLR 14/09 A2990 RMK AO2
KULM 200414Z AUTO 17012KT 10SM CLR 14/08 A2991 RMK AO2
KULM 200354Z AUTO 18010KT 10SM CLR 15/08 A2991 RMK AO2
KULM 200334Z AUTO 18010KT 10SM 15/08 A2991 RMK AO2
KULM 200313Z AUTO 18010KT 10SM 15/08 A2991 RMK AO2
KULM 200254Z AUTO 18011KT 10SM 16/07 A2991 RMK AO2
KULM 200234Z AUTO 17012KT 10SM CLR 16/07 A2991 RMK AO2
KULM 200213Z AUTO 18012KT 10SM CLR 16/07 A2991 RMK AO2
KULM 200154Z AUTO 18011G18KT 10SM CLR 16/07 A2991 RMK AO2
KULM 200134Z AUTO 17011KT 10SM CLR 17/07 A2991 RMK AO2
KULM 200113Z AUTO 17012KT 10SM CLR 17/06 A2991 RMK AO2
KULM 200054Z AUTO 17012KT 10SM CLR 17/06 A2992 RMK AO2
KULM 200034Z AUTO 17011KT 10SM 17/06 A2992 RMK AO2
KULM 200014Z AUTO 17010KT 10SM CLR 17/06 A2992 RMK AO2
KULM 192354Z AUTO 17011KT 10SM CLR 18/05 A2992 RMK AO2
KULM 192333Z AUTO 17010KT 10SM CLR 18/04 A2992 RMK AO2
KULM 192314Z AUTO 17012KT 10SM CLR 19/05 A2992 RMK AO2
KULM 192254Z AUTO 17012G18KT 10SM CLR 20/04 A2992 RMK AO2
KULM 192233Z AUTO 17013G17KT 10SM CLR 21/04 A2992 RMK AO2
KULM 192214Z AUTO 18014G21KT 10SM CLR 22/04 A2993 RMK AO2
KULM 192154Z AUTO 18015G21KT 10SM CLR 22/04 A2993 RMK AO2
KULM 192133Z AUTO 18014G23KT 10SM CLR 22/04 A2994 RMK AO2
KULM 192114Z AUTO 17018KT 10SM CLR 22/03 A2995 RMK AO2
KULM 192054Z AUTO 17015KT 10SM CLR 22/03 A2995 RMK AO2